Time;durP1;ratioP1;P1;durP2;ratioP2;P2;SDS_P1;SDS_P2;PMS_P1;PMS_P2;Temp;Humidity;BMP_temperature;BMP_pressure;BME280_temperature;BME280_humidity;BME280_pressure;Samples;Min_cycle;Max_cycle;Signal;HPM_P1;HPM_P2
2022/01/13 00:02:26;;;;;;;21.20;16.67;;;;;;;;;;6187759;23;20281;-82
2022/01/13 00:04:53;;;;;;;22.07;16.43;;;;;;;;;;6188307;23;20184;-83
2022/01/13 00:07:22;;;;;;;21.37;15.97;;;;;;;;;;6187060;23;20173;-82
2022/01/13 00:09:49;;;;;;;21.93;16.17;;;;;;;;;;6188612;23;20170;-83
2022/01/13 00:12:19;;;;;;;20.70;15.53;;;;;;;;;;6189371;23;20174;-83
2022/01/13 00:15:07;;;;;;;21.90;16.90;;;;;;;;;;6188131;23;20181;-83
2022/01/13 00:17:46;;;;;;;19.07;15.40;;;;;;;;;;6197115;23;20185;-84
2022/01/13 00:26:02;;;;;;;20.83;16.50;;;;;;;;;;6071194;23;20200;-84
2022/01/13 00:28:29;;;;;;;20.17;16.27;;;;;;;;;;6143233;23;20224;-83
2022/01/13 00:30:58;;;;;;;22.70;16.73;;;;;;;;;;6184916;23;20261;-83
2022/01/13 00:33:26;;;;;;;20.73;16.77;;;;;;;;;;6185129;23;20170;-83
2022/01/13 00:35:54;;;;;;;20.70;17.93;;;;;;;;;;6184830;23;20193;-84
2022/01/13 00:38:23;;;;;;;21.67;17.20;;;;;;;;;;6184609;23;20209;-84
2022/01/13 00:40:50;;;;;;;23.53;17.67;;;;;;;;;;6185123;23;20252;-83
2022/01/13 00:43:18;;;;;;;22.07;17.30;;;;;;;;;;6184889;23;20190;-84
2022/01/13 00:45:47;;;;;;;21.93;17.37;;;;;;;;;;6187616;23;20457;-84
2022/01/13 00:48:14;;;;;;;22.13;18.50;;;;;;;;;;6187461;23;20188;-84
2022/01/13 00:50:41;;;;;;;22.57;17.80;;;;;;;;;;6188466;23;20173;-83
2022/01/13 00:53:08;;;;;;;22.43;17.87;;;;;;;;;;6188072;23;20174;-83
2022/01/13 00:55:48;;;;;;;26.13;18.30;;;;;;;;;;6187703;23;20248;-84
2022/01/13 00:58:15;;;;;;;23.00;17.97;;;;;;;;;;6186744;23;20170;-83
2022/01/13 01:00:43;;;;;;;21.60;17.60;;;;;;;;;;6187764;23;20174;-84
2022/01/13 01:03:10;;;;;;;20.70;16.47;;;;;;;;;;6188056;23;20177;-83
2022/01/13 01:05:37;;;;;;;21.70;17.20;;;;;;;;;;6187767;23;20256;-84
2022/01/13 01:08:06;;;;;;;22.20;17.00;;;;;;;;;;6187491;23;20174;-83
2022/01/13 01:10:33;;;;;;;21.93;17.10;;;;;;;;;;6187728;23;20170;-83
2022/01/13 01:13:10;;;;;;;23.57;17.43;;;;;;;;;;6188802;23;20174;-82
2022/01/13 01:15:38;;;;;;;22.80;18.00;;;;;;;;;;6187896;23;20719;-81
2022/01/13 01:18:17;;;;;;;23.37;17.27;;;;;;;;;;6187521;23;20220;-84
2022/01/13 01:20:51;;;;;;;21.93;16.50;;;;;;;;;;6188181;23;20158;-83
2022/01/13 01:23:24;;;;;;;23.73;17.30;;;;;;;;;;6188297;23;20232;-83
2022/01/13 01:26:01;;;;;;;22.87;16.73;;;;;;;;;;6188781;23;20217;-84
2022/01/13 01:28:40;;;;;;;20.63;16.20;;;;;;;;;;6187806;23;20154;-83
2022/01/13 01:31:07;;;;;;;20.20;15.87;;;;;;;;;;6187813;23;20217;-83
2022/01/13 01:33:38;;;;;;;23.37;18.13;;;;;;;;;;6188074;23;20177;-83
2022/01/13 01:36:11;;;;;;;22.73;17.57;;;;;;;;;;6188346;23;20217;-83
2022/01/13 01:38:40;;;;;;;24.27;17.53;;;;;;;;;;6187189;23;20240;-83
2022/01/13 01:41:07;;;;;;;22.00;17.40;;;;;;;;;;6188621;23;20244;-83
2022/01/13 01:43:36;;;;;;;21.70;17.97;;;;;;;;;;6187621;23;20180;-83
2022/01/13 01:46:03;;;;;;;23.07;18.43;;;;;;;;;;6188150;23;20418;-84
2022/01/13 01:48:34;;;;;;;25.80;19.83;;;;;;;;;;6186753;23;20234;-82
2022/01/13 01:51:04;;;;;;;22.37;18.03;;;;;;;;;;6188802;23;20154;-83
2022/01/13 01:53:31;;;;;;;23.27;18.67;;;;;;;;;;6188411;23;20174;-82
2022/01/13 01:55:59;;;;;;;24.83;19.23;;;;;;;;;;6188008;23;20193;-83
2022/01/13 01:58:27;;;;;;;23.37;18.43;;;;;;;;;;6187804;23;20170;-84
2022/01/13 02:00:57;;;;;;;23.47;18.53;;;;;;;;;;6188688;23;20196;-82
2022/01/13 02:03:24;;;;;;;25.80;19.20;;;;;;;;;;6188214;23;20185;-84
2022/01/13 02:05:51;;;;;;;25.73;18.87;;;;;;;;;;6189320;23;20252;-83
2022/01/13 02:08:18;;;;;;;22.10;17.87;;;;;;;;;;6191666;23;20174;-83
2022/01/13 02:10:46;;;;;;;27.40;19.10;;;;;;;;;;6192878;23;20193;-83
2022/01/13 02:13:19;;;;;;;24.67;18.73;;;;;;;;;;6192519;23;20169;-84
2022/01/13 02:16:00;;;;;;;24.57;18.70;;;;;;;;;;6191765;23;20256;-84
2022/01/13 02:18:31;;;;;;;24.50;17.30;;;;;;;;;;6192360;23;20158;-83
2022/01/13 02:21:01;;;;;;;22.23;17.50;;;;;;;;;;6189747;23;20240;-84
2022/01/13 02:23:33;;;;;;;24.50;18.83;;;;;;;;;;6189902;23;20235;-84
2022/01/13 02:26:01;;;;;;;23.47;17.27;;;;;;;;;;6189824;23;20579;-84
2022/01/13 02:28:28;;;;;;;24.17;18.70;;;;;;;;;;6188231;23;20177;-84
2022/01/13 02:30:58;;;;;;;22.67;17.33;;;;;;;;;;6187657;23;20178;-84
2022/01/13 02:33:26;;;;;;;23.40;17.83;;;;;;;;;;6188233;23;20181;-83
2022/01/13 02:35:53;;;;;;;23.03;18.30;;;;;;;;;;6186817;23;20205;-83
2022/01/13 02:38:22;;;;;;;24.43;18.23;;;;;;;;;;6186747;23;20197;-84
2022/01/13 02:40:54;;;;;;;23.77;18.20;;;;;;;;;;6188093;23;20193;-83
2022/01/13 02:43:21;;;;;;;24.70;18.57;;;;;;;;;;6189032;23;20166;-83
2022/01/13 02:46:04;;;;;;;24.07;18.03;;;;;;;;;;6188646;23;20209;-84
2022/01/13 02:48:32;;;;;;;24.93;17.97;;;;;;;;;;6188950;23;20174;-83
2022/01/13 02:51:00;;;;;;;23.77;18.70;;;;;;;;;;6189490;23;20204;-83
2022/01/13 02:53:29;;;;;;;27.43;18.77;;;;;;;;;;6188879;23;20246;-83
2022/01/13 02:56:02;;;;;;;24.10;18.80;;;;;;;;;;6188761;23;20198;-84
2022/01/13 02:58:29;;;;;;;26.40;19.60;;;;;;;;;;6188070;23;20165;-83
2022/01/13 03:00:57;;;;;;;26.20;20.73;;;;;;;;;;6188743;23;20212;-83
2022/01/13 03:03:24;;;;;;;27.63;20.13;;;;;;;;;;6189223;23;20228;-83
2022/01/13 03:05:52;;;;;;;29.37;20.63;;;;;;;;;;6189212;23;20198;-83
2022/01/13 03:08:19;;;;;;;26.43;20.67;;;;;;;;;;6188417;23;20209;-83
2022/01/13 03:10:48;;;;;;;28.20;21.60;;;;;;;;;;6189962;23;20232;-84
2022/01/13 03:13:17;;;;;;;30.03;21.93;;;;;;;;;;6189706;23;20170;-84
2022/01/13 03:15:44;;;;;;;31.60;21.63;;;;;;;;;;6189432;23;20205;-84
2022/01/13 03:18:12;;;;;;;28.90;21.13;;;;;;;;;;6187213;23;20174;-84
2022/01/13 03:20:39;;;;;;;32.37;22.20;;;;;;;;;;6188004;23;20197;-84
2022/01/13 03:23:06;;;;;;;31.50;22.13;;;;;;;;;;6188020;23;20178;-84
2022/01/13 03:25:34;;;;;;;32.00;22.23;;;;;;;;;;6188422;23;20193;-84
2022/01/13 03:28:08;;;;;;;31.77;21.93;;;;;;;;;;6186892;23;20228;-83
2022/01/13 03:30:35;;;;;;;34.33;22.70;;;;;;;;;;6198647;23;20177;-83
2022/01/13 03:33:03;;;;;;;30.37;21.90;;;;;;;;;;6184462;23;20174;-81
2022/01/13 03:35:30;;;;;;;33.70;23.60;;;;;;;;;;6185104;23;20248;-83
2022/01/13 03:37:58;;;;;;;31.23;22.47;;;;;;;;;;6184553;23;20221;-82
2022/01/13 03:40:26;;;;;;;30.33;23.77;;;;;;;;;;6185262;23;20245;-83
2022/01/13 03:42:53;;;;;;;33.90;23.33;;;;;;;;;;6185372;23;20170;-84
2022/01/13 03:45:22;;;;;;;31.07;22.73;;;;;;;;;;6187422;23;20217;-83
2022/01/13 03:47:50;;;;;;;30.83;22.20;;;;;;;;;;6186920;23;20181;-83
2022/01/13 03:50:17;;;;;;;31.07;23.20;;;;;;;;;;6188437;23;20239;-84
2022/01/13 03:53:03;;;;;;;30.87;22.10;;;;;;;;;;6189006;23;20189;-83
2022/01/13 03:55:49;;;;;;;31.17;22.23;;;;;;;;;;6188533;23;20194;-83
2022/01/13 03:58:35;;;;;;;28.87;21.83;;;;;;;;;;6187901;23;20173;-83
2022/01/13 04:01:28;;;;;;;33.10;22.63;;;;;;;;;;6191865;23;20193;-84
2022/01/13 04:03:55;;;;;;;32.20;22.13;;;;;;;;;;6185552;23;20174;-83
2022/01/13 04:06:37;;;;;;;30.53;22.77;;;;;;;;;;6186126;23;20190;-83
2022/01/13 04:09:09;;;;;;;30.00;22.13;;;;;;;;;;6185976;23;20249;-84
2022/01/13 04:11:36;;;;;;;31.43;23.47;;;;;;;;;;6185520;23;20178;-84
2022/01/13 04:14:05;;;;;;;33.77;22.60;;;;;;;;;;6185635;23;20192;-84
2022/01/13 04:16:36;;;;;;;33.40;24.30;;;;;;;;;;6185102;23;20277;-84
2022/01/13 04:19:05;;;;;;;33.27;22.37;;;;;;;;;;6185529;23;20201;-84
2022/01/13 04:21:32;;;;;;;32.70;23.30;;;;;;;;;;6185949;23;20190;-83
2022/01/13 04:24:00;;;;;;;33.63;24.03;;;;;;;;;;6186638;23;20232;-83
2022/01/13 04:26:30;;;;;;;34.27;23.60;;;;;;;;;;6186387;23;20193;-84
2022/01/13 04:29:04;;;;;;;35.37;24.03;;;;;;;;;;6187372;23;20173;-82
2022/01/13 04:31:32;;;;;;;32.13;22.73;;;;;;;;;;6193307;23;20169;-84
2022/01/13 04:34:00;;;;;;;31.43;22.30;;;;;;;;;;6187971;23;20205;-83
2022/01/13 04:36:28;;;;;;;32.67;22.40;;;;;;;;;;6189906;23;20194;-85
2022/01/13 04:38:55;;;;;;;31.80;23.67;;;;;;;;;;6192473;23;20174;-83
2022/01/13 04:41:30;;;;;;;35.57;23.37;;;;;;;;;;6189602;23;20190;-84
2022/01/13 04:43:58;;;;;;;32.80;22.30;;;;;;;;;;6188184;23;20166;-84
2022/01/13 04:46:25;;;;;;;32.40;22.43;;;;;;;;;;6187661;23;20198;-82
2022/01/13 04:48:52;;;;;;;29.00;21.40;;;;;;;;;;6188739;23;20253;-84
2022/01/13 04:51:21;;;;;;;30.37;22.00;;;;;;;;;;6196908;23;20174;-84
2022/01/13 04:53:48;;;;;;;29.53;21.73;;;;;;;;;;6195078;23;20174;-84
2022/01/13 04:56:27;;;;;;;32.60;23.47;;;;;;;;;;6193456;23;20225;-81
2022/01/13 04:58:54;;;;;;;31.57;22.13;;;;;;;;;;6201972;23;20218;-81
2022/01/13 05:01:22;;;;;;;31.27;22.80;;;;;;;;;;6203938;23;20196;-84
2022/01/13 05:03:49;;;;;;;31.17;22.57;;;;;;;;;;6204510;23;20181;-83
2022/01/13 05:06:19;;;;;;;31.63;23.20;;;;;;;;;;6200867;23;20204;-83
2022/01/13 05:08:47;;;;;;;28.37;22.07;;;;;;;;;;6192153;23;20174;-82
2022/01/13 05:11:15;;;;;;;29.03;21.23;;;;;;;;;;6190797;23;20170;-82
2022/01/13 05:13:44;;;;;;;32.17;23.17;;;;;;;;;;6190098;23;20174;-83
2022/01/13 05:16:20;;;;;;;28.95;21.75;;;;;;;;;;6183770;23;20221;-84
2022/01/13 05:18:52;;;;;;;28.77;21.60;;;;;;;;;;6119202;23;20160;-84
2022/01/13 05:21:23;;;;;;;31.67;22.37;;;;;;;;;;6119590;23;20192;-85
2022/01/13 05:23:53;;;;;;;28.57;21.03;;;;;;;;;;6120679;23;20207;-85
2022/01/13 05:26:21;;;;;;;30.03;21.43;;;;;;;;;;6120927;23;20159;-85
2022/01/13 05:28:48;;;;;;;25.83;20.37;;;;;;;;;;6117176;23;20247;-85
2022/01/13 05:31:21;;;;;;;29.87;21.23;;;;;;;;;;6109358;23;20172;-85
2022/01/13 05:33:48;;;;;;;29.50;21.73;;;;;;;;;;6101306;23;20176;-85
2022/01/13 05:36:17;;;;;;;25.70;20.47;;;;;;;;;;6098788;23;20172;-85
2022/01/13 05:38:48;;;;;;;28.50;21.10;;;;;;;;;;6103819;23;20176;-86
2022/01/13 05:41:16;;;;;;;27.83;21.50;;;;;;;;;;6102590;23;20235;-85
2022/01/13 05:43:44;;;;;;;28.20;21.27;;;;;;;;;;6101338;23;20178;-86
2022/01/13 05:46:11;;;;;;;28.07;21.30;;;;;;;;;;6107658;23;20178;-84
2022/01/13 05:48:41;;;;;;;28.93;21.93;;;;;;;;;;6105549;23;20175;-84
2022/01/13 05:51:08;;;;;;;26.10;20.37;;;;;;;;;;6106147;23;20211;-86
2022/01/13 05:53:35;;;;;;;27.10;20.87;;;;;;;;;;6106648;23;20172;-87
2022/01/13 05:56:05;;;;;;;26.60;21.80;;;;;;;;;;6105727;23;20180;-84
2022/01/13 05:58:39;;;;;;;29.50;22.17;;;;;;;;;;6105169;23;20250;-84
2022/01/13 06:01:06;;;;;;;29.63;21.50;;;;;;;;;;6104084;23;20266;-85
2022/01/13 06:03:34;;;;;;;26.17;20.67;;;;;;;;;;6104864;23;20172;-86
2022/01/13 06:06:05;;;;;;;27.80;21.37;;;;;;;;;;6103251;23;20176;-85
2022/01/13 06:08:39;;;;;;;26.97;21.77;;;;;;;;;;6105833;23;20238;-85
2022/01/13 06:11:10;;;;;;;28.53;20.90;;;;;;;;;;6104864;23;20200;-85
2022/01/13 06:13:45;;;;;;;26.90;20.87;;;;;;;;;;6106644;23;20216;-86
2022/01/13 06:16:15;;;;;;;27.43;20.37;;;;;;;;;;6104941;23;20200;-85
2022/01/13 06:18:42;;;;;;;28.60;20.43;;;;;;;;;;6103101;23;20168;-83
2022/01/13 06:21:09;;;;;;;30.17;21.57;;;;;;;;;;6104342;23;20639;-86
2022/01/13 06:23:41;;;;;;;29.53;19.80;;;;;;;;;;6104449;23;20529;-86
2022/01/13 06:26:10;;;;;;;26.73;20.10;;;;;;;;;;6103328;23;20175;-85
2022/01/13 06:28:41;;;;;;;25.47;19.63;;;;;;;;;;6100671;23;20175;-85
2022/01/13 06:31:08;;;;;;;25.53;19.93;;;;;;;;;;6102068;23;20168;-83
2022/01/13 06:33:41;;;;;;;24.20;18.70;;;;;;;;;;6101107;23;20179;-85
2022/01/13 06:36:08;;;;;;;26.50;20.40;;;;;;;;;;6101340;23;20168;-85
2022/01/13 06:38:36;;;;;;;24.53;20.13;;;;;;;;;;6100214;23;20176;-84
2022/01/13 06:41:05;;;;;;;27.27;20.20;;;;;;;;;;6101509;23;20195;-87
2022/01/13 06:43:33;;;;;;;27.57;20.37;;;;;;;;;;6100963;23;20180;-86
2022/01/13 06:46:02;;;;;;;28.13;20.13;;;;;;;;;;6102861;23;20182;-85
2022/01/13 06:48:29;;;;;;;30.17;20.87;;;;;;;;;;6100425;23;20175;-86
2022/01/13 06:50:57;;;;;;;25.97;20.13;;;;;;;;;;6104233;23;20224;-85
2022/01/13 06:53:24;;;;;;;28.83;20.07;;;;;;;;;;6111336;23;20223;-88
2022/01/13 06:55:56;;;;;;;27.23;20.17;;;;;;;;;;6109819;23;20172;-85
2022/01/13 07:10:57;;;;;;;27.40;20.17;;;;;;;;;;6063563;23;20173;-87
2022/01/13 07:13:26;;;;;;;26.97;20.13;;;;;;;;;;6071938;23;20184;-84
2022/01/13 07:15:55;;;;;;;27.77;20.00;;;;;;;;;;6160425;23;20171;-85
2022/01/13 07:18:22;;;;;;;26.40;20.47;;;;;;;;;;6161140;23;20195;-84
2022/01/13 07:20:50;;;;;;;26.43;19.73;;;;;;;;;;6159899;23;20195;-84
2022/01/13 07:23:18;;;;;;;24.47;19.07;;;;;;;;;;6159841;23;20237;-85
2022/01/13 07:25:46;;;;;;;24.60;19.07;;;;;;;;;;6160432;23;20174;-82
2022/01/13 07:28:15;;;;;;;27.07;19.53;;;;;;;;;;6160073;23;20218;-84
2022/01/13 07:30:44;;;;;;;26.13;19.40;;;;;;;;;;6159592;23;20171;-84
2022/01/13 07:33:12;;;;;;;25.87;18.97;;;;;;;;;;6159588;23;20250;-83
2022/01/13 07:35:41;;;;;;;28.57;20.37;;;;;;;;;;6160274;23;20205;-83
2022/01/13 07:38:12;;;;;;;26.03;20.40;;;;;;;;;;6162198;23;20195;-85
2022/01/13 07:40:42;;;;;;;30.63;20.50;;;;;;;;;;6160452;23;20245;-84
2022/01/13 07:43:09;;;;;;;26.23;20.63;;;;;;;;;;6160223;23;20193;-84
2022/01/13 07:45:37;;;;;;;24.13;18.73;;;;;;;;;;6165299;23;20238;-83
2022/01/13 07:48:13;;;;;;;25.90;19.67;;;;;;;;;;6159492;23;20194;-83
2022/01/13 07:50:40;;;;;;;25.63;19.27;;;;;;;;;;6163378;23;20217;-84
2022/01/13 07:53:10;;;;;;;25.17;19.00;;;;;;;;;;6159486;23;20261;-84
2022/01/13 07:55:38;;;;;;;26.37;19.47;;;;;;;;;;6160243;23;20208;-83
2022/01/13 07:58:06;;;;;;;27.20;19.37;;;;;;;;;;6157967;23;20195;-84
2022/01/13 08:00:38;;;;;;;27.27;20.23;;;;;;;;;;6159691;23;20313;-84
2022/01/13 08:03:09;;;;;;;24.77;19.40;;;;;;;;;;6159662;23;20250;-82
2022/01/13 08:05:39;;;;;;;25.60;19.80;;;;;;;;;;6159835;23;20167;-84
2022/01/13 08:08:16;;;;;;;26.63;20.43;;;;;;;;;;6158943;23;20202;-83
2022/01/13 08:13:33;;;;;;;26.90;18.90;;;;;;;;;;6157617;23;20207;-83
2022/01/13 08:16:06;;;;;;;24.50;18.57;;;;;;;;;;6158910;23;20174;-83
2022/01/13 08:21:27;;;;;;;25.37;18.87;;;;;;;;;;6157965;23;20798;-83
2022/01/13 08:23:54;;;;;;;26.67;19.23;;;;;;;;;;6157892;23;20185;-83
2022/01/13 08:26:27;;;;;;;24.70;18.50;;;;;;;;;;6158292;23;20170;-79
2022/01/13 08:28:57;;;;;;;26.83;18.23;;;;;;;;;;6158047;23;20173;-82
2022/01/13 08:31:25;;;;;;;24.73;18.70;;;;;;;;;;6157633;23;20194;-83
2022/01/13 08:33:54;;;;;;;22.87;17.03;;;;;;;;;;6157979;23;20254;-82
2022/01/13 08:36:22;;;;;;;23.77;17.73;;;;;;;;;;6157523;23;20174;-82
2022/01/13 08:38:51;;;;;;;18.80;15.40;;;;;;;;;;6156735;23;20170;-83
2022/01/13 08:41:18;;;;;;;16.20;13.80;;;;;;;;;;6158175;23;20222;-82
2022/01/13 08:43:51;;;;;;;15.50;12.60;;;;;;;;;;6157170;23;20175;-83
2022/01/13 08:46:19;;;;;;;15.60;12.57;;;;;;;;;;6157649;23;20254;-80
2022/01/13 08:48:47;;;;;;;18.00;13.57;;;;;;;;;;6156397;23;20170;-82
2022/01/13 08:51:18;;;;;;;17.43;12.50;;;;;;;;;;6158459;23;20170;-79
2022/01/13 08:53:46;;;;;;;16.40;12.83;;;;;;;;;;6156046;23;20218;-82
2022/01/13 08:56:18;;;;;;;16.70;12.97;;;;;;;;;;6156430;23;20533;-81
2022/01/13 08:58:47;;;;;;;13.93;11.67;;;;;;;;;;6155770;23;20169;-86
2022/01/13 09:01:17;;;;;;;14.20;11.27;;;;;;;;;;6157174;23;20201;-82
2022/01/13 09:03:46;;;;;;;13.40;11.77;;;;;;;;;;6157655;23;20167;-83
2022/01/13 09:06:15;;;;;;;17.20;11.73;;;;;;;;;;6157778;23;20180;-83
2022/01/13 09:08:43;;;;;;;11.20;9.90;;;;;;;;;;6155820;23;20245;-84
2022/01/13 09:11:12;;;;;;;13.67;10.70;;;;;;;;;;6157004;23;20238;-83
2022/01/13 09:13:39;;;;;;;13.13;10.70;;;;;;;;;;6156128;23;20178;-83
2022/01/13 09:16:16;;;;;;;13.77;10.47;;;;;;;;;;6155863;23;20175;-83
2022/01/13 09:19:07;;;;;;;13.87;10.03;;;;;;;;;;6156443;23;20194;-83
2022/01/13 09:21:38;;;;;;;10.50;8.37;;;;;;;;;;6157066;23;20191;-80
2022/01/13 09:24:11;;;;;;;10.57;8.37;;;;;;;;;;6156995;23;20162;-82
2022/01/13 09:26:38;;;;;;;9.97;8.20;;;;;;;;;;6156413;23;20194;-80
2022/01/13 09:29:07;;;;;;;10.93;8.63;;;;;;;;;;6157987;23;20181;-83
2022/01/13 09:31:40;;;;;;;20.30;15.23;;;;;;;;;;6158269;23;20229;-83
2022/01/13 09:34:18;;;;;;;11.30;9.47;;;;;;;;;;6157172;23;20181;-84
2022/01/13 09:36:47;;;;;;;11.63;9.47;;;;;;;;;;6157405;23;20194;-83
2022/01/13 09:39:17;;;;;;;13.07;10.37;;;;;;;;;;6156974;23;20175;-80
2022/01/13 09:41:50;;;;;;;12.40;10.47;;;;;;;;;;6156671;23;20269;-81
2022/01/13 09:44:17;;;;;;;13.87;11.20;;;;;;;;;;6156969;23;20201;-83
2022/01/13 09:46:46;;;;;;;15.80;12.37;;;;;;;;;;6156076;23;20201;-82
2022/01/13 09:49:16;;;;;;;13.97;12.30;;;;;;;;;;6156963;23;20177;-83
2022/01/13 09:51:45;;;;;;;14.80;12.10;;;;;;;;;;6156660;23;20171;-82
2022/01/13 09:54:16;;;;;;;13.63;11.90;;;;;;;;;;6157853;23;20250;-83
2022/01/13 09:56:44;;;;;;;13.80;10.90;;;;;;;;;;6156709;23;20225;-83
2022/01/13 10:02:15;;;;;;;15.23;11.47;;;;;;;;;;6170456;23;20232;-84
2022/01/13 10:04:53;;;;;;;14.43;12.30;;;;;;;;;;6161514;23;20174;-84
2022/01/13 10:07:31;;;;;;;16.80;12.53;;;;;;;;;;6157215;23;20190;-82
2022/01/13 10:10:04;;;;;;;15.87;12.90;;;;;;;;;;6158218;23;20201;-83
2022/01/13 10:12:37;;;;;;;16.57;13.33;;;;;;;;;;6158132;23;20173;-80
2022/01/13 10:17:52;;;;;;;21.10;14.00;;;;;;;;;;6156831;23;20210;-84
2022/01/13 10:20:21;;;;;;;20.17;13.83;;;;;;;;;;6158323;23;20179;-83
2022/01/13 10:22:49;;;;;;;17.33;14.43;;;;;;;;;;6158180;23;20201;-82
2022/01/13 10:25:27;;;;;;;17.30;14.10;;;;;;;;;;6157515;23;20175;-82
2022/01/13 10:27:55;;;;;;;19.57;14.83;;;;;;;;;;6159832;23;20197;-80
2022/01/13 10:30:26;;;;;;;21.50;16.17;;;;;;;;;;6162242;23;20175;-83
2022/01/13 10:32:57;;;;;;;20.70;15.47;;;;;;;;;;6159369;23;20170;-83
2022/01/13 10:35:24;;;;;;;20.17;15.03;;;;;;;;;;6158090;23;20223;-84
2022/01/13 10:37:56;;;;;;;20.47;15.10;;;;;;;;;;6156444;23;20195;-81
2022/01/13 10:40:29;;;;;;;20.67;16.07;;;;;;;;;;6158158;23;20253;-83
2022/01/13 10:43:09;;;;;;;20.77;15.80;;;;;;;;;;6158123;23;20220;-83
2022/01/13 10:45:41;;;;;;;21.40;15.87;;;;;;;;;;6156684;23;20167;-83
2022/01/13 10:48:10;;;;;;;19.33;15.37;;;;;;;;;;6158116;23;20202;-82
2022/01/13 10:50:38;;;;;;;19.33;16.10;;;;;;;;;;6158680;23;20688;-82
2022/01/13 10:53:07;;;;;;;22.37;15.50;;;;;;;;;;6159659;23;20171;-83
2022/01/13 10:55:37;;;;;;;19.13;15.87;;;;;;;;;;6159403;23;20174;-81
2022/01/13 10:58:06;;;;;;;18.03;14.70;;;;;;;;;;6158732;23;20198;-82
2022/01/13 11:00:37;;;;;;;21.80;15.70;;;;;;;;;;6158353;23;20186;-81
2022/01/13 11:03:09;;;;;;;20.93;15.20;;;;;;;;;;6158056;23;20190;-84
2022/01/13 11:05:40;;;;;;;22.63;16.40;;;;;;;;;;6159677;23;20169;-83
2022/01/13 11:08:10;;;;;;;20.63;14.20;;;;;;;;;;6158305;23;20198;-84
2022/01/13 11:10:40;;;;;;;19.63;15.37;;;;;;;;;;6158915;23;20225;-81
2022/01/13 11:13:17;;;;;;;18.53;15.10;;;;;;;;;;6159415;23;20170;-80
2022/01/13 11:15:50;;;;;;;18.70;14.47;;;;;;;;;;6158704;23;20170;-82
2022/01/13 11:21:03;;;;;;;18.80;15.47;;;;;;;;;;6161762;23;20306;-83
2022/01/13 11:23:31;;;;;;;20.17;16.03;;;;;;;;;;6165927;23;20242;-83
2022/01/13 11:32:25;;;;;;;18.50;14.90;;;;;;;;;;6029765;23;20228;-86
2022/01/13 11:35:08;;;;;;;19.00;15.13;;;;;;;;;;6072115;23;20168;-85
2022/01/13 11:37:43;;;;;;;20.10;15.43;;;;;;;;;;6070823;23;20197;-83
2022/01/13 11:43:37;;;;;;;22.43;15.63;;;;;;;;;;6068807;23;20200;-86
2022/01/13 11:46:28;;;;;;;20.73;15.30;;;;;;;;;;6070402;23;20172;-86
2022/01/13 11:49:17;;;;;;;19.53;15.17;;;;;;;;;;6072832;23;20679;-87
2022/01/13 11:51:57;;;;;;;18.10;14.60;;;;;;;;;;6073869;23;20243;-86
2022/01/13 11:54:52;;;;;;;;;;;;;;;;;;;;;
2022/01/13 11:57:29;;;;;;;19.53;14.47;;;;;;;;;;6068508;23;20197;-87
2022/01/13 12:00:22;;;;;;;17.63;14.53;;;;;;;;;;6089596;23;20231;-84
2022/01/13 12:11:04;;;;;;;17.93;14.07;;;;;;;;;;6146277;23;20186;-87
2022/01/13 12:13:35;;;;;;;16.13;12.70;;;;;;;;;;6180485;23;20178;-85
2022/01/13 12:16:05;;;;;;;18.47;13.43;;;;;;;;;;6180153;23;20178;-85
2022/01/13 12:18:52;;;;;;;17.57;13.57;;;;;;;;;;6177327;23;20209;-83
2022/01/13 12:21:25;;;;;;;16.37;12.80;;;;;;;;;;6178044;23;20214;-83
2022/01/13 12:23:53;;;;;;;17.50;12.20;;;;;;;;;;6175952;23;20174;-85
2022/01/13 12:26:41;;;;;;;16.13;12.97;;;;;;;;;;6166268;23;20189;-82
2022/01/13 12:29:17;;;;;;;16.33;12.27;;;;;;;;;;6160108;23;20189;-82
2022/01/13 12:32:08;;;;;;;15.60;12.47;;;;;;;;;;6168517;23;20154;-83
2022/01/13 12:34:59;;;;;;;14.60;10.90;;;;;;;;;;6162525;23;20185;-85
2022/01/13 12:50:26;;;;;;;15.63;11.23;;;;;;;;;;5997547;23;20189;-86
2022/01/13 12:59:15;;;;;;;13.57;11.20;;;;;;;;;;6007258;23;20202;-89
2022/01/13 13:02:10;;;;;;;16.27;11.87;;;;;;;;;;6009992;23;20229;-87
2022/01/13 13:17:11;;;;;;;;;;;;;;;;;;;;;
2022/01/13 13:23:03;;;;;;;14.93;11.93;;;;;;;;;;6066502;23;20197;-88
2022/01/13 13:32:22;;;;;;;;;;;;;;;;;;;;;
2022/01/13 13:43:28;;;;;;;13.40;11.17;;;;;;;;;;6104600;23;20206;-86
2022/01/13 13:49:00;;;;;;;13.03;11.13;;;;;;;;;;5981022;24;20195;-88
2022/01/13 13:51:44;;;;;;;;;;;;;;;;;;;;;
2022/01/13 13:57:07;;;;;;;14.70;12.17;;;;;;;;;;6056043;23;20188;-87
2022/01/13 13:59:52;;;;;;;;;;;;;;;;;;;;;
2022/01/13 14:08:54;;;;;;;13.83;11.93;;;;;;;;;;6056081;23;20267;-88
2022/01/13 14:11:28;;;;;;;13.83;11.67;;;;;;;;;;6070295;23;20169;-87
2022/01/13 14:14:09;;;;;;;15.90;11.23;;;;;;;;;;6071565;23;20181;-87
2022/01/13 14:16:39;;;;;;;13.80;11.17;;;;;;;;;;6071836;23;20184;-87
2022/01/13 14:19:12;;;;;;;15.07;11.47;;;;;;;;;;6071140;23;20256;-87
2022/01/13 14:22:05;;;;;;;14.23;11.53;;;;;;;;;;6071243;23;20173;-87
2022/01/13 14:27:30;;;;;;;16.67;10.83;;;;;;;;;;6058882;23;20207;-88
2022/01/13 14:30:02;;;;;;;15.67;11.83;;;;;;;;;;6072998;23;20180;-86
2022/01/13 14:35:51;;;;;;;13.07;11.10;;;;;;;;;;6066415;23;20184;-87
2022/01/13 14:42:04;;;;;;;20.63;12.20;;;;;;;;;;6051164;23;20180;-86
2022/01/13 14:50:54;;;;;;;;;;;;;;;;;;;;;
2022/01/13 15:20:48;;;;;;;20.70;16.43;;;;;;;;;;6181159;23;20201;-91
2022/01/13 15:26:32;;;;;;;18.07;12.83;;;;;;;;;;6118867;23;20571;-87
2022/01/13 15:29:46;;;;;;;14.77;12.53;;;;;;;;;;6189506;23;20200;-87
2022/01/13 15:35:27;;;;;;;16.73;12.23;;;;;;;;;;6186286;23;20181;-88
2022/01/13 15:38:02;;;;;;;15.60;11.93;;;;;;;;;;6188288;23;20240;-88
2022/01/13 15:40:33;;;;;;;15.70;13.10;;;;;;;;;;6196734;23;20169;-88
2022/01/13 15:46:03;;;;;;;18.27;13.17;;;;;;;;;;6182986;23;20204;-90
2022/01/13 15:51:22;;;;;;;17.03;12.77;;;;;;;;;;6189457;23;20245;-88
2022/01/13 15:53:55;;;;;;;17.00;13.20;;;;;;;;;;6159785;23;20208;-89
2022/01/13 15:59:50;;;;;;;19.43;13.40;;;;;;;;;;6127364;23;20217;-87
2022/01/13 16:05:37;;;;;;;18.30;14.17;;;;;;;;;;6126304;23;20179;-88
2022/01/13 16:13:46;;;;;;;18.07;13.50;;;;;;;;;;6126493;23;20172;-89
2022/01/13 16:22:38;;;;;;;15.97;12.80;;;;;;;;;;5982825;24;20179;-88
2022/01/13 16:28:02;;;;;;;20.47;14.63;;;;;;;;;;5971393;24;20202;-88
2022/01/13 16:30:39;;;;;;;16.13;13.17;;;;;;;;;;5982286;24;20181;-87
2022/01/13 16:36:20;;;;;;;17.10;13.47;;;;;;;;;;6114472;23;20181;-87
2022/01/13 16:42:03;;;;;;;;;;;;;;;;;;;;;
2022/01/13 16:47:30;;;;;;;17.63;12.77;;;;;;;;;;6137641;23;20210;-89
2022/01/13 16:50:16;;;;;;;18.63;13.50;;;;;;;;;;6141268;23;20181;-89
2022/01/13 16:52:49;;;;;;;18.53;13.60;;;;;;;;;;6148253;23;20257;-87
2022/01/13 16:55:49;;;;;;;18.33;13.80;;;;;;;;;;6148136;23;20182;-89
2022/01/13 16:58:26;;;;;;;25.60;18.57;;;;;;;;;;6148253;23;20195;-88
2022/01/13 17:01:04;;;;;;;24.87;15.73;;;;;;;;;;6135683;23;20187;-89
2022/01/13 17:03:45;;;;;;;18.97;14.20;;;;;;;;;;6134160;23;20191;-88
2022/01/13 17:06:22;;;;;;;20.60;15.53;;;;;;;;;;6131979;23;20202;-88
2022/01/13 17:09:13;;;;;;;20.63;14.63;;;;;;;;;;6129667;23;20243;-90
2022/01/13 17:19:56;;;;;;;20.30;15.00;;;;;;;;;;6187780;23;20192;-86
2022/01/13 17:22:38;;;;;;;20.17;14.23;;;;;;;;;;6186492;23;20166;-88
2022/01/13 17:25:13;;;;;;;21.27;14.80;;;;;;;;;;6165086;23;20226;-85
2022/01/13 17:27:47;;;;;;;17.83;14.07;;;;;;;;;;6158217;23;20217;-88
2022/01/13 17:30:18;;;;;;;19.17;14.60;;;;;;;;;;6160982;23;20174;-89
2022/01/13 17:35:50;;;;;;;18.70;13.73;;;;;;;;;;6152273;23;20186;-86
2022/01/13 17:38:29;;;;;;;24.00;14.70;;;;;;;;;;6159960;23;20204;-88
2022/01/13 17:43:43;;;;;;;21.03;15.90;;;;;;;;;;6214596;23;20193;-87
2022/01/13 17:46:13;;;;;;;22.47;15.93;;;;;;;;;;6217291;23;20173;-87
2022/01/13 17:48:41;;;;;;;22.77;16.20;;;;;;;;;;6217113;23;20197;-87
2022/01/13 17:51:10;;;;;;;21.20;16.00;;;;;;;;;;6218119;23;20173;-87
2022/01/13 17:53:37;;;;;;;23.17;16.43;;;;;;;;;;6217555;23;20177;-89
2022/01/13 17:56:05;;;;;;;20.77;15.57;;;;;;;;;;6217462;23;20173;-87
2022/01/13 17:58:36;;;;;;;20.67;15.37;;;;;;;;;;6217401;23;20200;-88
2022/01/13 18:01:05;;;;;;;22.93;16.03;;;;;;;;;;6218578;23;20219;-87
2022/01/13 18:03:34;;;;;;;22.13;16.27;;;;;;;;;;6226080;23;20185;-86
2022/01/13 18:06:02;;;;;;;21.73;15.23;;;;;;;;;;6217514;23;20177;-87
2022/01/13 18:08:37;;;;;;;26.53;17.23;;;;;;;;;;6216939;23;20204;-86
2022/01/13 18:11:10;;;;;;;22.10;16.30;;;;;;;;;;6216645;23;20248;-88
2022/01/13 18:13:40;;;;;;;21.77;15.23;;;;;;;;;;6217111;23;20225;-88
2022/01/13 18:16:12;;;;;;;25.77;16.70;;;;;;;;;;6218572;23;20174;-87
2022/01/13 18:18:39;;;;;;;21.43;15.23;;;;;;;;;;6219128;23;20193;-89
2022/01/13 18:21:09;;;;;;;23.67;16.63;;;;;;;;;;6219219;23;20188;-87
2022/01/13 18:23:47;;;;;;;;;;;;;;;;;;;;;
2022/01/13 18:26:17;;;;;;;21.47;15.60;;;;;;;;;;6216301;23;20168;-86